createdAt,value
2019-04-03T00:00:16.628Z,1020.86
2019-04-03T00:01:16.736Z,1020.88
2019-04-03T00:02:16.652Z,1020.88
2019-04-03T00:03:16.669Z,1020.89
2019-04-03T00:04:16.588Z,1020.88
2019-04-03T00:05:16.584Z,1020.86
2019-04-03T00:06:16.567Z,1020.85
2019-04-03T00:07:16.561Z,1020.81
2019-04-03T00:08:16.546Z,1020.75
2019-04-03T00:09:16.541Z,1020.76
2019-04-03T00:10:16.529Z,1020.77
2019-04-03T00:11:16.535Z,1020.74
2019-04-03T00:12:16.505Z,1020.73
2019-04-03T00:13:16.494Z,1020.73
2019-04-03T00:14:16.551Z,1020.72
2019-04-03T00:15:16.482Z,1020.72
2019-04-03T00:16:16.511Z,1020.71
2019-04-03T00:17:16.453Z,1020.72
2019-04-03T00:18:16.800Z,1020.71
2019-04-03T00:19:17.680Z,1020.71
2019-04-03T00:20:17.983Z,1020.71
2019-04-03T00:21:17.644Z,1020.71
2019-04-03T00:22:16.404Z,1020.7
2019-04-03T00:23:16.401Z,1020.7
2019-04-03T00:24:16.380Z,1020.65
2019-04-03T00:25:16.373Z,1020.61
2019-04-03T00:26:16.363Z,1020.61
2019-04-03T00:27:16.353Z,1020.6
2019-04-03T00:28:16.339Z,1020.59
2019-04-03T00:29:16.327Z,1020.56
2019-04-03T00:30:16.321Z,1020.6
2019-04-03T00:31:16.462Z,1020.61
2019-04-03T00:32:16.300Z,1020.65
2019-04-03T00:33:16.286Z,1020.65
2019-04-03T00:34:16.279Z,1020.68
2019-04-03T00:35:16.270Z,1020.71
2019-04-03T00:36:16.258Z,1020.8
2019-04-03T00:37:16.246Z,1020.83
2019-04-03T00:38:16.238Z,1020.77
2019-04-03T00:39:16.224Z,1020.79
2019-04-03T00:40:16.216Z,1020.75
2019-04-03T00:41:16.206Z,1020.73
2019-04-03T00:42:16.194Z,1020.7
2019-04-03T00:43:16.180Z,1020.74
2019-04-03T00:44:16.223Z,1020.81
2019-04-03T00:45:16.159Z,1020.84
2019-04-03T00:46:16.153Z,1020.9
2019-04-03T00:47:16.144Z,1020.9
2019-04-03T00:48:16.132Z,1020.84
2019-04-03T00:49:16.117Z,1020.83
2019-04-03T00:50:16.112Z,1020.81
2019-04-03T00:51:16.180Z,1020.81
2019-04-03T00:52:16.093Z,1020.78
2019-04-03T00:53:16.076Z,1020.76
2019-04-03T00:54:16.069Z,1020.81
2019-04-03T00:55:16.162Z,1020.83
2019-04-03T00:56:16.048Z,1020.87
2019-04-03T00:57:16.033Z,1020.89
2019-04-03T00:58:16.020Z,1020.89
2019-04-03T00:59:16.012Z,1020.92
2019-04-03T01:00:16.005Z,1020.91
2019-04-03T01:01:15.994Z,1020.93
2019-04-03T01:02:16.454Z,1020.94
2019-04-03T01:03:15.969Z,1020.94
2019-04-03T01:04:15.959Z,1020.96
2019-04-03T01:05:15.951Z,1020.91
2019-04-03T01:06:15.943Z,1020.96
2019-04-03T01:07:15.930Z,1020.96
2019-04-03T01:08:15.914Z,1020.96
2019-04-03T01:09:15.950Z,1020.94
2019-04-03T01:10:15.999Z,1020.93
2019-04-03T01:11:15.883Z,1020.93
2019-04-03T01:12:15.876Z,1020.93
2019-04-03T01:13:15.937Z,1020.91
2019-04-03T01:14:15.851Z,1020.92
2019-04-03T01:15:15.981Z,1020.89
2019-04-03T01:16:15.833Z,1020.93
2019-04-03T01:17:15.822Z,1020.9
2019-04-03T01:18:15.807Z,1020.94
2019-04-03T01:19:15.831Z,1020.89
2019-04-03T01:20:15.807Z,1020.85
2019-04-03T01:21:15.779Z,1020.84
2019-04-03T01:22:15.764Z,1020.84
2019-04-03T01:23:15.756Z,1020.79
2019-04-03T01:24:15.742Z,1020.84
2019-04-03T01:25:15.735Z,1020.86
2019-04-03T01:26:15.720Z,1020.88
2019-04-03T01:27:15.712Z,1020.82
2019-04-03T01:28:15.698Z,1020.76
2019-04-03T01:29:15.692Z,1020.78
2019-04-03T01:30:15.681Z,1020.76
2019-04-03T01:31:15.668Z,1020.76
2019-04-03T01:32:16.196Z,1020.76
2019-04-03T01:33:16.414Z,1020.76
2019-04-03T01:34:17.370Z,1020.73
2019-04-03T01:35:17.353Z,1020.74
2019-04-03T01:36:17.091Z,1020.71
2019-04-03T01:37:16.769Z,1020.67
2019-04-03T01:38:15.590Z,1020.67
2019-04-03T01:39:15.582Z,1020.61
2019-04-03T01:40:15.567Z,1020.6
2019-04-03T01:41:15.561Z,1020.55
2019-04-03T01:42:15.545Z,1020.53
2019-04-03T01:43:15.657Z,1020.48
2019-04-03T01:44:15.522Z,1020.45
2019-04-03T01:45:15.516Z,1020.41
2019-04-03T01:46:15.505Z,1020.37
2019-04-03T01:47:15.545Z,1020.41
2019-04-03T01:48:15.482Z,1020.33
2019-04-03T01:49:15.468Z,1020.34
2019-04-03T01:50:15.462Z,1020.34
2019-04-03T01:51:15.451Z,1020.33
2019-04-03T01:52:15.441Z,1020.28
2019-04-03T01:53:15.455Z,1020.26
2019-04-03T01:54:15.419Z,1020.27
2019-04-03T01:55:15.460Z,1020.28
2019-04-03T01:56:15.395Z,1020.26
2019-04-03T01:57:15.380Z,1020.22
2019-04-03T01:58:15.374Z,1020.23
2019-04-03T01:59:15.359Z,1020.23
2019-04-03T02:00:15.352Z,1020.21
2019-04-03T02:01:15.404Z,1020.25
2019-04-03T02:02:15.330Z,1020.25
2019-04-03T02:03:15.319Z,1020.25
2019-04-03T02:04:15.304Z,1020.28
2019-04-03T02:05:15.292Z,1020.34
2019-04-03T02:06:15.303Z,1020.38
2019-04-03T02:07:15.277Z,1020.41
2019-04-03T02:08:15.270Z,1020.47
2019-04-03T02:09:15.974Z,1020.5
2019-04-03T02:10:15.792Z,1020.52
2019-04-03T02:11:15.228Z,1020.52
2019-04-03T02:12:15.363Z,1020.48
2019-04-03T02:13:15.205Z,1020.51
2019-04-03T02:14:15.200Z,1020.47
2019-04-03T02:15:15.183Z,1020.45
2019-04-03T02:16:15.177Z,1020.44
2019-04-03T02:17:15.161Z,1020.46
2019-04-03T02:18:15.149Z,1020.42
2019-04-03T02:19:15.140Z,1020.43
2019-04-03T02:20:15.132Z,1020.45
2019-04-03T02:21:15.230Z,1020.46
2019-04-03T02:22:15.106Z,1020.45
2019-04-03T02:23:15.100Z,1020.47
2019-04-03T02:24:15.085Z,1020.44
2019-04-03T02:25:15.112Z,1020.44
2019-04-03T02:26:15.063Z,1020.42
2019-04-03T02:27:15.051Z,1020.44
2019-04-03T02:28:15.045Z,1020.49
2019-04-03T02:29:15.032Z,1020.49
2019-04-03T02:30:15.023Z,1020.51
2019-04-03T02:31:17.736Z,1020.48
2019-04-03T02:32:15.148Z,1020.45
2019-04-03T02:33:15.091Z,1020.46
2019-04-03T02:34:14.972Z,1020.48
2019-04-03T02:35:14.962Z,1020.48
2019-04-03T02:36:15.023Z,1020.43
2019-04-03T02:37:16.785Z,1020.42
2019-04-03T02:38:14.934Z,1020.42
2019-04-03T02:39:14.950Z,1020.47
2019-04-03T02:40:14.907Z,1020.48
2019-04-03T02:41:14.900Z,1020.5
2019-04-03T02:42:14.898Z,1020.56
2019-04-03T02:43:15.457Z,1020.52
2019-04-03T02:44:17.920Z,1020.55
2019-04-03T02:45:14.860Z,1020.56
2019-04-03T02:46:14.839Z,1020.54
2019-04-03T02:47:14.837Z,1020.6
2019-04-03T02:48:15.170Z,1020.59
2019-04-03T02:49:14.811Z,1020.64
2019-04-03T02:50:15.373Z,1020.61
2019-04-03T02:51:14.898Z,1020.6
2019-04-03T02:52:14.775Z,1020.57
2019-04-03T02:53:14.766Z,1020.56
2019-04-03T02:54:14.753Z,1020.55
2019-04-03T02:55:14.738Z,1020.53
2019-04-03T02:56:14.787Z,1020.53
2019-04-03T02:57:17.349Z,1020.53
2019-04-03T02:58:14.875Z,1020.5
2019-04-03T02:59:14.697Z,1020.53
2019-04-03T03:00:14.908Z,1020.49
2019-04-03T03:01:14.682Z,1020.48
2019-04-03T03:02:14.773Z,1020.48
2019-04-03T03:03:17.101Z,1020.49
2019-04-03T03:04:14.635Z,1020.48
2019-04-03T03:05:14.629Z,1020.48
2019-04-03T03:06:14.613Z,1020.53
2019-04-03T03:07:14.601Z,1020.48
2019-04-03T03:08:14.634Z,1020.5
2019-04-03T03:09:14.616Z,1020.46
2019-04-03T03:10:18.530Z,1020.5
2019-04-03T03:11:14.554Z,1020.5
2019-04-03T03:12:14.602Z,1020.52
2019-04-03T03:13:14.835Z,1020.51
2019-04-03T03:14:14.521Z,1020.5
2019-04-03T03:15:14.636Z,1020.51
2019-04-03T03:16:17.250Z,1020.51
2019-04-03T03:17:14.525Z,1020.5
2019-04-03T03:18:14.686Z,1020.48
2019-04-03T03:19:14.468Z,1020.47
2019-04-03T03:20:14.454Z,1020.45
2019-04-03T03:21:14.464Z,1020.47
2019-04-03T03:22:16.839Z,1020.49
2019-04-03T03:23:14.422Z,1020.51
2019-04-03T03:24:14.408Z,1020.52
2019-04-03T03:25:14.629Z,1020.49
2019-04-03T03:26:14.382Z,1020.51
2019-04-03T03:27:14.374Z,1020.49
2019-04-03T03:28:14.812Z,1020.5
2019-04-03T03:29:18.316Z,1020.54
2019-04-03T03:30:32.445Z,1020.53
2019-04-03T03:31:14.549Z,1020.54
2019-04-03T03:32:29.421Z,1020.53
2019-04-03T03:33:31.851Z,1020.58
2019-04-03T03:34:44.562Z,1020.54
2019-04-03T03:35:45.177Z,1020.53
2019-04-03T03:36:41.371Z,1020.49
2019-04-03T03:37:40.916Z,1020.47
2019-04-03T03:38:41.077Z,1020.47
2019-04-03T03:39:43.399Z,1020.45
2019-04-03T03:40:40.848Z,1020.43
2019-04-03T03:41:40.837Z,1020.39
2019-04-03T03:42:40.833Z,1020.42
2019-04-03T03:43:40.817Z,1020.42
2019-04-03T03:44:44.266Z,1020.44
2019-04-03T03:45:40.795Z,1020.44
2019-04-03T03:46:40.789Z,1020.49
2019-04-03T03:47:40.875Z,1020.45
2019-04-03T03:48:43.552Z,1020.42
2019-04-03T03:49:41.079Z,1020.45
2019-04-03T03:50:40.735Z,1020.41
2019-04-03T03:51:40.722Z,1020.4
2019-04-03T03:52:40.710Z,1020.39
2019-04-03T03:53:43.555Z,1020.38
2019-04-03T03:54:40.691Z,1020.39
2019-04-03T03:55:40.833Z,1020.4
2019-04-03T03:56:40.664Z,1020.4
2019-04-03T03:57:41.021Z,1020.41
2019-04-03T03:58:44.526Z,1020.44
2019-04-03T03:59:40.802Z,1020.45
2019-04-03T04:00:40.808Z,1020.39
2019-04-03T04:01:40.676Z,1020.38
2019-04-03T04:02:43.359Z,1020.39
2019-04-03T04:03:41.703Z,1020.36
2019-04-03T04:04:40.577Z,1020.42
2019-04-03T04:05:40.919Z,1020.38
2019-04-03T04:06:40.552Z,1020.33
2019-04-03T04:07:40.850Z,1020.36
2019-04-03T04:08:44.009Z,1020.37
2019-04-03T04:09:40.513Z,1020.35
2019-04-03T04:10:40.507Z,1020.37
2019-04-03T04:11:40.490Z,1020.38
2019-04-03T04:12:41.815Z,1020.36
2019-04-03T04:13:40.467Z,1020.41
2019-04-03T04:14:40.711Z,1020.41
2019-04-03T04:15:40.446Z,1020.44
2019-04-03T04:16:40.704Z,1020.44
2019-04-03T04:17:40.472Z,1020.44
2019-04-03T04:18:40.483Z,1020.45
2019-04-03T04:19:40.396Z,1020.47
2019-04-03T04:20:40.391Z,1020.49
2019-04-03T04:21:42.417Z,1020.44
2019-04-03T04:22:40.583Z,1020.45
2019-04-03T04:23:40.643Z,1020.45
2019-04-03T04:24:40.378Z,1020.42
2019-04-03T04:25:43.122Z,1020.44
2019-04-03T04:26:40.600Z,1020.41
2019-04-03T04:27:40.310Z,1020.43
2019-04-03T04:28:40.689Z,1020.41
2019-04-03T04:29:41.564Z,1020.41
2019-04-03T04:30:40.590Z,1020.43
2019-04-03T04:31:41.769Z,1020.47
2019-04-03T04:32:40.245Z,1020.45
2019-04-03T04:33:40.239Z,1020.46
2019-04-03T04:34:40.437Z,1020.43
2019-04-03T04:35:40.216Z,1020.47
2019-04-03T04:36:40.203Z,1020.43
2019-04-03T04:37:40.771Z,1020.38
2019-04-03T04:38:40.180Z,1020.36
2019-04-03T04:39:40.169Z,1020.34
2019-04-03T04:40:40.157Z,1020.37
2019-04-03T04:41:40.143Z,1020.37
2019-04-03T04:42:40.134Z,1020.35
2019-04-03T04:43:40.122Z,1020.36
2019-04-03T04:44:41.142Z,1020.37
2019-04-03T04:45:40.770Z,1020.33
2019-04-03T04:46:40.083Z,1020.31
2019-04-03T04:47:40.118Z,1020.28
2019-04-03T04:48:40.064Z,1020.25
2019-04-03T04:49:40.047Z,1020.26
2019-04-03T04:50:40.041Z,1020.24
2019-04-03T04:51:40.179Z,1020.22
2019-04-03T04:52:40.141Z,1020.21
2019-04-03T04:53:40.120Z,1020.19
2019-04-03T04:54:42.772Z,1020.16
2019-04-03T04:55:39.983Z,1020.16
2019-04-03T04:56:39.971Z,1020.11
2019-04-03T04:57:40.968Z,1020.04
2019-04-03T04:58:42.273Z,1020.05
2019-04-03T04:59:40.085Z,1019.99
2019-04-03T05:00:39.925Z,1019.94
2019-04-03T05:01:39.910Z,1019.93
2019-04-03T05:02:39.901Z,1019.89
2019-04-03T05:03:39.885Z,1019.88
2019-04-03T05:04:39.880Z,1019.85
2019-04-03T05:05:39.864Z,1019.85
2019-04-03T05:06:39.856Z,1019.8
2019-04-03T05:07:39.840Z,1019.8
2019-04-03T05:08:39.834Z,1019.81
2019-04-03T05:09:40.133Z,1019.8
2019-04-03T05:10:39.811Z,1019.79
2019-04-03T05:11:39.799Z,1019.72
2019-04-03T05:12:42.525Z,1019.69
2019-04-03T05:13:39.782Z,1019.69
2019-04-03T05:14:39.765Z,1019.63
2019-04-03T05:15:39.754Z,1019.58
2019-04-03T05:16:39.810Z,1019.55
2019-04-03T05:17:39.732Z,1019.5
2019-04-03T05:18:39.717Z,1019.44
2019-04-03T05:19:39.711Z,1019.36
2019-04-03T05:20:39.694Z,1019.32
2019-04-03T05:21:39.850Z,1019.35
2019-04-03T05:22:39.673Z,1019.32
2019-04-03T05:23:39.667Z,1019.3
2019-04-03T05:24:39.676Z,1019.27
2019-04-03T05:25:39.644Z,1019.25
2019-04-03T05:26:39.630Z,1019.25
2019-04-03T05:27:39.625Z,1019.22
2019-04-03T05:28:39.612Z,1019.19
2019-04-03T05:29:39.598Z,1019.2
2019-04-03T05:30:39.594Z,1019.15
2019-04-03T05:31:39.788Z,1019.14
2019-04-03T05:32:41.112Z,1019.15
2019-04-03T05:33:41.088Z,1019.1
2019-04-03T05:34:39.545Z,1019.09
2019-04-03T05:35:39.538Z,1019.04
2019-04-03T05:36:39.524Z,1019.04
2019-04-03T05:37:39.519Z,1019.02
2019-04-03T05:38:39.700Z,1018.95
2019-04-03T05:39:39.497Z,1018.98
2019-04-03T05:40:39.482Z,1018.95
2019-04-03T05:41:39.478Z,1018.95
2019-04-03T05:42:39.462Z,1018.92
2019-04-03T05:43:39.491Z,1018.88
2019-04-03T05:44:39.442Z,1018.85
2019-04-03T05:45:40.986Z,1018.83
2019-04-03T05:46:39.426Z,1018.78
2019-04-03T05:47:39.907Z,1018.78
2019-04-03T05:48:39.403Z,1018.73
2019-04-03T05:49:39.392Z,1018.72
2019-04-03T05:50:39.388Z,1018.7
2019-04-03T05:51:39.373Z,1018.65
2019-04-03T05:52:39.363Z,1018.6
2019-04-03T05:53:39.358Z,1018.53
2019-04-03T05:54:39.754Z,1018.53
2019-04-03T05:55:40.975Z,1018.49
2019-04-03T05:56:39.324Z,1018.5
2019-04-03T05:57:39.317Z,1018.45
2019-04-03T05:58:39.303Z,1018.41
2019-04-03T05:59:39.295Z,1018.35
2019-04-03T06:00:39.291Z,1018.31
2019-04-03T06:01:39.623Z,1018.24
2019-04-03T06:02:39.465Z,1018.16
2019-04-03T06:03:44.411Z,1018.12
2019-04-03T06:04:40.708Z,1018.05
2019-04-03T06:05:39.239Z,1017.99
2019-04-03T06:06:39.386Z,1017.99
2019-04-03T06:07:39.223Z,1017.94
2019-04-03T06:08:39.225Z,1017.89
2019-04-03T06:09:39.202Z,1017.86
2019-04-03T06:10:39.199Z,1017.77
2019-04-03T06:11:40.455Z,1017.75
2019-04-03T06:12:39.420Z,1017.66
2019-04-03T06:13:39.167Z,1017.59
2019-04-03T06:14:39.164Z,1017.5
2019-04-03T06:15:39.153Z,1017.4
2019-04-03T06:16:39.144Z,1017.24
2019-04-03T06:17:39.131Z,1017.14
2019-04-03T06:18:39.129Z,1017
2019-04-03T06:19:39.888Z,1016.93
2019-04-03T06:20:39.107Z,1016.8
2019-04-03T06:21:39.178Z,1016.77
2019-04-03T06:22:39.095Z,1016.71
2019-04-03T06:23:39.083Z,1016.7
2019-04-03T06:24:39.079Z,1016.67
2019-04-03T06:25:39.080Z,1016.47
2019-04-03T06:26:39.063Z,1016.27
2019-04-03T06:27:40.642Z,1016.22
2019-04-03T06:28:39.102Z,1016.07
2019-04-03T06:29:39.223Z,1015.98
2019-04-03T06:30:39.033Z,1015.93
2019-04-03T06:31:39.024Z,1015.93
2019-04-03T06:32:39.017Z,1015.92
2019-04-03T06:33:39.049Z,1015.9
2019-04-03T06:34:42.384Z,1015.9
2019-04-03T06:35:39.159Z,1015.93
2019-04-03T06:36:38.988Z,1016.01
2019-04-03T06:37:38.981Z,1016.04
2019-04-03T06:38:38.980Z,1016.07
2019-04-03T06:39:38.975Z,1016.03
2019-04-03T06:40:38.966Z,1016.05
2019-04-03T06:41:41.456Z,1015.97
2019-04-03T06:42:38.953Z,1015.85
2019-04-03T06:43:39.185Z,1015.7
2019-04-03T06:44:38.936Z,1015.56
2019-04-03T06:45:38.937Z,1015.46
2019-04-03T06:46:39.007Z,1015.41
2019-04-03T06:47:39.024Z,1015.4
2019-04-03T06:48:39.151Z,1015.4
2019-04-03T06:49:40.233Z,1015.3
2019-04-03T06:50:39.129Z,1015.19
2019-04-03T06:51:39.024Z,1015.06
2019-04-03T06:52:38.888Z,1014.87
2019-04-03T06:53:38.882Z,1014.71
2019-04-03T06:54:38.881Z,1014.73
2019-04-03T06:55:38.944Z,1014.7
2019-04-03T06:56:40.494Z,1014.7
2019-04-03T06:57:39.381Z,1014.6
2019-04-03T06:58:40.094Z,1014.57
2019-04-03T06:59:38.850Z,1014.45
2019-04-03T07:00:38.936Z,1014.29
2019-04-03T07:01:38.840Z,1014.16
2019-04-03T07:02:38.842Z,1014.08
2019-04-03T07:03:39.029Z,1014.01
2019-04-03T07:04:38.945Z,1013.98
2019-04-03T07:05:39.265Z,1013.97
2019-04-03T07:06:38.817Z,1013.91
2019-04-03T07:07:38.818Z,1013.91
2019-04-03T07:08:40.644Z,1013.93
2019-04-03T07:09:39.028Z,1013.93
2019-04-03T07:10:40.231Z,1013.92
2019-04-03T07:11:38.797Z,1014.02
2019-04-03T07:12:38.886Z,1014.08
2019-04-03T07:13:38.791Z,1014.06
2019-04-03T07:14:38.790Z,1014.09
2019-04-03T07:15:38.783Z,1014.22
2019-04-03T07:16:39.033Z,1014.26
2019-04-03T07:17:38.774Z,1014.21
2019-04-03T07:18:38.923Z,1014.21
2019-04-03T07:19:39.749Z,1014.13
2019-04-03T07:20:38.770Z,1014.08
2019-04-03T07:21:38.976Z,1014.12
2019-04-03T07:22:38.765Z,1014.13
2019-04-03T07:23:38.759Z,1014.07
2019-04-03T07:24:38.757Z,1014.09
2019-04-03T07:25:38.839Z,1014.09
2019-04-03T07:26:38.745Z,1013.95
2019-04-03T07:27:41.385Z,1013.86
2019-04-03T07:28:40.558Z,1013.77
2019-04-03T07:29:38.741Z,1013.71
2019-04-03T07:30:38.785Z,1013.56
2019-04-03T07:31:38.736Z,1013.45
2019-04-03T07:32:38.938Z,1013.39
2019-04-03T07:33:38.730Z,1013.31
2019-04-03T07:34:38.723Z,1013.36
2019-04-03T07:35:40.142Z,1013.46
2019-04-03T07:36:40.915Z,1013.49
2019-04-03T07:37:38.717Z,1013.64
2019-04-03T07:38:38.737Z,1013.65
2019-04-03T07:39:38.716Z,1013.52
2019-04-03T07:40:38.714Z,1013.28
2019-04-03T07:41:40.967Z,1013.12
2019-04-03T07:42:38.969Z,1013.06
2019-04-03T07:43:39.019Z,1013.08
2019-04-03T07:44:38.702Z,1012.89
2019-04-03T07:45:38.704Z,1012.83
2019-04-03T07:46:38.698Z,1012.76
2019-04-03T07:47:38.705Z,1012.85
2019-04-03T07:48:38.694Z,1012.85
2019-04-03T07:49:39.981Z,1012.85
2019-04-03T07:50:39.692Z,1012.88
2019-04-03T07:51:38.954Z,1012.73
2019-04-03T07:52:38.689Z,1012.68
2019-04-03T07:53:38.696Z,1012.55
2019-04-03T07:54:38.689Z,1012.51
2019-04-03T07:55:38.684Z,1012.54
2019-04-03T07:56:38.683Z,1012.5
2019-04-03T07:57:40.600Z,1012.54
2019-04-03T07:58:38.686Z,1012.65
2019-04-03T07:59:38.679Z,1012.78
2019-04-03T08:00:39.243Z,1012.79
2019-04-03T08:01:40.800Z,1012.9
2019-04-03T08:02:38.677Z,1012.92
2019-04-03T08:03:38.679Z,1012.88
2019-04-03T08:04:38.933Z,1012.79
2019-04-03T08:05:38.676Z,1012.76
2019-04-03T08:06:38.671Z,1012.63
2019-04-03T08:07:38.671Z,1012.65
2019-04-03T08:08:38.668Z,1012.6
2019-04-03T08:09:38.672Z,1012.5
2019-04-03T08:10:38.671Z,1012.35
2019-04-03T08:11:38.761Z,1012.18
2019-04-03T08:12:38.669Z,1012.01
2019-04-03T08:13:38.665Z,1011.91
2019-04-03T08:14:39.068Z,1011.88
2019-04-03T08:15:38.763Z,1011.89
2019-04-03T08:16:41.654Z,1011.9
2019-04-03T08:17:38.693Z,1011.93
2019-04-03T08:18:38.669Z,1012.21
2019-04-03T08:19:38.662Z,1012.5
2019-04-03T08:20:38.665Z,1012.75
2019-04-03T08:21:38.790Z,1012.94
2019-04-03T08:22:38.665Z,1013.24
2019-04-03T08:23:38.663Z,1013.45
2019-04-03T08:24:39.642Z,1013.65
2019-04-03T08:25:38.658Z,1013.82
2019-04-03T08:26:38.662Z,1013.9
2019-04-03T08:27:38.657Z,1013.99
2019-04-03T08:28:38.713Z,1014.17
2019-04-03T08:29:39.102Z,1014.23
2019-04-03T08:30:39.594Z,1014.37
2019-04-03T08:31:38.651Z,1014.43
2019-04-03T08:32:38.653Z,1014.51
2019-04-03T08:33:38.647Z,1014.53
2019-04-03T08:34:38.736Z,1014.63
2019-04-03T08:35:38.642Z,1014.68
2019-04-03T08:36:39.737Z,1014.77
2019-04-03T08:37:40.485Z,1014.88
2019-04-03T08:38:38.696Z,1014.91
2019-04-03T08:39:38.636Z,1014.91
2019-04-03T08:40:38.637Z,1014.94
2019-04-03T08:41:38.858Z,1014.98
2019-04-03T08:42:38.624Z,1015.03
2019-04-03T08:43:38.906Z,1015.02
2019-04-03T08:44:38.787Z,1015.05
2019-04-03T08:45:39.234Z,1015.03
2019-04-03T08:46:38.724Z,1015.04
2019-04-03T08:47:38.620Z,1014.99
2019-04-03T08:48:38.614Z,1015.01
2019-04-03T08:49:38.605Z,1014.96
2019-04-03T08:50:38.686Z,1014.96
2019-04-03T08:51:38.599Z,1014.91
2019-04-03T08:52:38.594Z,1014.86
2019-04-03T08:53:39.620Z,1014.79
2019-04-03T08:54:41.227Z,1014.73
2019-04-03T08:55:38.895Z,1014.68
2019-04-03T08:56:38.580Z,1014.62
2019-04-03T08:57:38.700Z,1014.59
2019-04-03T08:58:38.575Z,1014.55
2019-04-03T08:59:38.570Z,1014.51
2019-04-03T09:00:38.566Z,1014.5
2019-04-03T09:01:38.563Z,1014.45
2019-04-03T09:02:38.555Z,1014.47
2019-04-03T09:03:38.670Z,1014.44
2019-04-03T09:04:38.748Z,1014.47
2019-04-03T09:05:38.548Z,1014.52
2019-04-03T09:06:38.541Z,1014.52
2019-04-03T09:07:38.541Z,1014.59
2019-04-03T09:08:38.533Z,1014.65
2019-04-03T09:09:38.536Z,1014.62
2019-04-03T09:10:38.795Z,1014.68
2019-04-03T09:11:38.523Z,1014.65
2019-04-03T09:12:38.906Z,1014.67
2019-04-03T09:13:38.521Z,1014.65
2019-04-03T09:14:38.516Z,1014.64
2019-04-03T09:15:38.549Z,1014.62
2019-04-03T09:16:38.506Z,1014.6
2019-04-03T09:17:39.030Z,1014.62
2019-04-03T09:18:38.746Z,1014.63
2019-04-03T09:19:40.561Z,1014.59
2019-04-03T09:20:38.494Z,1014.65
2019-04-03T09:21:38.760Z,1014.61
2019-04-03T09:22:38.606Z,1014.63
2019-04-03T09:23:38.862Z,1014.53
2019-04-03T09:24:38.546Z,1014.6
2019-04-03T09:25:38.484Z,1014.55
2019-04-03T09:26:38.818Z,1014.6
2019-04-03T09:27:40.292Z,1014.58
2019-04-03T09:28:41.127Z,1014.54
2019-04-03T09:29:38.559Z,1014.53
2019-04-03T09:30:38.457Z,1014.51
2019-04-03T09:31:38.450Z,1014.43
2019-04-03T09:32:38.445Z,1014.4
2019-04-03T09:33:38.480Z,1014.33
2019-04-03T09:34:38.442Z,1014.27
2019-04-03T09:35:38.737Z,1014.22
2019-04-03T09:36:38.583Z,1014.2
2019-04-03T09:37:38.821Z,1014.13
2019-04-03T09:38:40.489Z,1014.11
2019-04-03T09:39:38.568Z,1014.12
2019-04-03T09:40:38.420Z,1014.11
2019-04-03T09:41:38.525Z,1014.09
2019-04-03T09:42:38.413Z,1014.07
2019-04-03T09:43:39.613Z,1014.1
2019-04-03T09:44:38.521Z,1014.07
2019-04-03T09:45:38.402Z,1014.09
2019-04-03T09:46:38.398Z,1014.04
2019-04-03T09:47:38.389Z,1014.06
2019-04-03T09:48:38.386Z,1014.1
2019-04-03T09:49:42.249Z,1014.08
2019-04-03T09:50:38.383Z,1014.08
2019-04-03T09:51:38.375Z,1014.09
2019-04-03T09:52:44.873Z,1014.09
2019-04-03T09:53:38.367Z,1014.03
2019-04-03T09:54:38.367Z,1014
2019-04-03T09:55:38.700Z,1014
2019-04-03T09:56:49.755Z,1013.97
2019-04-03T09:57:38.501Z,1013.91
2019-04-03T09:58:38.536Z,1013.86
2019-04-03T09:59:38.590Z,1013.84
2019-04-03T10:00:41.182Z,1013.79
2019-04-03T10:01:38.645Z,1013.73
2019-04-03T10:02:38.338Z,1013.74
2019-04-03T10:03:38.330Z,1013.74
2019-04-03T10:04:38.330Z,1013.71
2019-04-03T10:05:38.553Z,1013.66
2019-04-03T10:06:38.378Z,1013.65
2019-04-03T10:07:38.372Z,1013.62
2019-04-03T10:08:40.317Z,1013.59
2019-04-03T10:09:39.090Z,1013.6
2019-04-03T10:10:38.307Z,1013.58
2019-04-03T10:11:39.367Z,1013.61
2019-04-03T10:12:38.298Z,1013.6
2019-04-03T10:13:38.384Z,1013.62
2019-04-03T10:14:38.291Z,1013.6
2019-04-03T10:15:38.325Z,1013.56
2019-04-03T10:16:38.506Z,1013.53
2019-04-03T10:17:38.736Z,1013.55
2019-04-03T10:18:38.997Z,1013.46
2019-04-03T10:19:38.273Z,1013.44
2019-04-03T10:20:38.270Z,1013.37
2019-04-03T10:21:38.546Z,1013.33
2019-04-03T10:22:38.462Z,1013.29
2019-04-03T10:23:38.259Z,1013.2
2019-04-03T10:24:38.643Z,1013.15
2019-04-03T10:25:38.433Z,1013.09
2019-04-03T10:26:40.238Z,1013.09
2019-04-03T10:27:38.245Z,1013.01
2019-04-03T10:28:38.246Z,1013.02
2019-04-03T10:29:38.239Z,1012.98
2019-04-03T10:30:38.325Z,1012.96
2019-04-03T10:31:38.311Z,1012.86
2019-04-03T10:32:38.238Z,1012.8
2019-04-03T10:33:38.505Z,1012.8
2019-04-03T10:34:38.233Z,1012.77
2019-04-03T10:35:39.274Z,1012.75
2019-04-03T10:36:39.767Z,1012.74
2019-04-03T10:37:38.214Z,1012.69
2019-04-03T10:38:38.519Z,1012.66
2019-04-03T10:39:40.975Z,1012.7
2019-04-03T10:40:38.209Z,1012.78
2019-04-03T10:41:38.382Z,1012.82
2019-04-03T10:42:38.202Z,1012.78
2019-04-03T10:43:38.478Z,1012.8
2019-04-03T10:44:38.197Z,1012.83
2019-04-03T10:45:38.204Z,1012.8
2019-04-03T10:46:38.192Z,1012.79
2019-04-03T10:47:41.930Z,1012.75
2019-04-03T10:48:38.191Z,1012.79
2019-04-03T10:49:38.179Z,1012.76
2019-04-03T10:50:38.722Z,1012.74
2019-04-03T10:51:40.442Z,1012.67
2019-04-03T10:52:38.212Z,1012.66
2019-04-03T10:53:38.172Z,1012.64
2019-04-03T10:54:38.582Z,1012.57
2019-04-03T10:55:38.170Z,1012.52
2019-04-03T10:56:38.159Z,1012.52
2019-04-03T10:57:38.249Z,1012.56
2019-04-03T10:58:41.774Z,1012.53
2019-04-03T10:59:38.157Z,1012.54
2019-04-03T11:00:38.260Z,1012.52
2019-04-03T11:01:38.146Z,1012.47
2019-04-03T11:02:38.148Z,1012.4
2019-04-03T11:03:38.382Z,1012.28
2019-04-03T11:04:38.424Z,1012.27
2019-04-03T11:05:38.284Z,1012.25
2019-04-03T11:06:38.132Z,1012.22
2019-04-03T11:07:38.133Z,1012.22
2019-04-03T11:08:38.154Z,1012.2
2019-04-03T11:09:38.128Z,1012.16
2019-04-03T11:10:38.122Z,1012.13
2019-04-03T11:11:38.122Z,1012.06
2019-04-03T11:12:38.117Z,1012.07
2019-04-03T11:13:38.170Z,1012.02
2019-04-03T11:14:39.123Z,1011.93
2019-04-03T11:15:38.239Z,1012
2019-04-03T11:16:39.000Z,1012
2019-04-03T11:17:38.376Z,1011.97
2019-04-03T11:18:38.101Z,1011.95
2019-04-03T11:19:38.222Z,1011.94
2019-04-03T11:20:38.861Z,1012
2019-04-03T11:21:38.095Z,1012
2019-04-03T11:22:41.413Z,1012.03
2019-04-03T11:23:43.661Z,1012.01
2019-04-03T11:25:55.054Z,1012.07
2019-04-03T11:26:55.043Z,1012.07
2019-04-03T11:27:55.100Z,1012.01
2019-04-03T11:28:55.046Z,1012
2019-04-03T11:29:55.108Z,1011.97
2019-04-03T11:30:56.266Z,1011.95
2019-04-03T11:31:55.032Z,1011.9
2019-04-03T11:32:55.043Z,1011.79
2019-04-03T11:33:55.075Z,1011.76
2019-04-03T11:34:55.300Z,1011.77
2019-04-03T11:35:55.287Z,1011.79
2019-04-03T11:36:55.123Z,1011.82
2019-04-03T11:37:55.017Z,1011.83
2019-04-03T11:39:06.408Z,1011.87
2019-04-03T11:40:02.274Z,1011.88
2019-04-03T11:40:55.011Z,1011.88
2019-04-03T11:41:56.229Z,1011.89
2019-04-03T11:42:55.006Z,1011.89
2019-04-03T11:43:55.206Z,1011.87
2019-04-03T11:44:55.213Z,1011.85
2019-04-03T11:45:55.000Z,1011.88
2019-04-03T11:46:54.996Z,1011.85
2019-04-03T11:47:54.994Z,1011.91
2019-04-03T11:48:55.345Z,1011.84
2019-04-03T11:49:54.992Z,1011.87
2019-04-03T11:50:56.557Z,1011.91
2019-04-03T11:51:55.133Z,1011.92
2019-04-03T11:52:55.286Z,1011.96
2019-04-03T11:53:54.980Z,1011.95
2019-04-03T11:54:54.978Z,1011.94
2019-04-03T11:55:55.243Z,1011.93
2019-04-03T11:56:56.552Z,1011.99
2019-04-03T11:57:55.081Z,1011.97
2019-04-03T11:58:55.332Z,1012.01
2019-04-03T11:59:56.524Z,1012.03
2019-04-03T12:00:55.295Z,1012.03
2019-04-03T12:01:55.277Z,1012.07
2019-04-03T12:02:54.959Z,1012.03
2019-04-03T12:03:55.066Z,1012.09
2019-04-03T12:04:54.952Z,1012.06
2019-04-03T12:05:54.950Z,1012.07
2019-04-03T12:06:55.266Z,1012.06
2019-04-03T12:07:56.524Z,1012.05
2019-04-03T12:08:54.943Z,1012.01
2019-04-03T12:09:55.046Z,1012.06